createdAt,value
2023-03-11T00:00:26.243Z,8.73
2023-03-11T00:01:27.837Z,8.71
2023-03-11T00:02:29.418Z,8.68
2023-03-11T00:03:30.991Z,8.72
2023-03-11T00:04:33.672Z,8.75
2023-03-11T00:05:38.100Z,8.75
2023-03-11T00:06:39.746Z,8.70
2023-03-11T00:07:41.315Z,8.73
2023-03-11T00:08:43.028Z,8.78
2023-03-11T00:09:44.633Z,8.73
2023-03-11T00:10:47.838Z,8.76
2023-03-11T00:11:49.467Z,8.72
2023-03-11T00:12:51.724Z,8.74
2023-03-11T00:13:53.266Z,8.74
2023-03-11T00:14:54.878Z,8.75
2023-03-11T00:15:57.218Z,8.79
2023-03-11T00:16:58.836Z,8.76
2023-03-11T00:18:00.911Z,8.79
2023-03-11T00:19:02.483Z,8.75
2023-03-11T00:20:05.887Z,8.75
2023-03-11T00:21:15.215Z,8.74
2023-03-11T00:22:16.769Z,8.73
2023-03-11T00:23:18.349Z,8.76
2023-03-11T00:24:19.899Z,8.69
2023-03-11T00:25:23.391Z,8.74
2023-03-11T00:26:25.035Z,8.75
2023-03-11T00:27:26.618Z,8.79
2023-03-11T00:28:28.235Z,8.81
2023-03-11T00:29:29.818Z,8.80
2023-03-11T00:30:31.592Z,8.83
2023-03-11T00:31:34.112Z,8.81
2023-03-11T00:32:36.241Z,8.80
2023-03-11T00:33:38.889Z,8.80
2023-03-11T00:34:40.445Z,8.81
2023-03-11T00:35:42.956Z,8.84
2023-03-11T00:36:44.588Z,8.85
2023-03-11T00:37:48.083Z,8.83
2023-03-11T00:38:50.562Z,8.82
2023-03-11T00:39:52.167Z,8.84
2023-03-11T00:40:54.050Z,8.80
2023-03-11T00:41:55.665Z,8.78
2023-03-11T00:42:58.642Z,8.74
2023-03-11T00:44:00.618Z,8.73
2023-03-11T00:45:02.215Z,8.75
2023-03-11T00:46:03.955Z,8.74
2023-03-11T00:47:05.568Z,8.68
2023-03-11T00:48:08.010Z,8.66
2023-03-11T00:49:09.616Z,8.67
2023-03-11T00:50:18.947Z,8.63
2023-03-11T00:51:20.571Z,8.58
2023-03-11T00:52:22.158Z,8.55
2023-03-11T00:53:23.743Z,8.51
2023-03-11T00:54:25.465Z,8.54
2023-03-11T00:55:30.902Z,8.56
2023-03-11T00:56:33.711Z,8.54
2023-03-11T00:57:35.337Z,8.57
2023-03-11T00:58:37.872Z,8.60
2023-03-11T00:59:39.468Z,8.60
2023-03-11T01:00:41.730Z,8.63
2023-03-11T01:01:43.337Z,8.62
2023-03-11T01:02:45.304Z,8.60
2023-03-11T01:03:46.906Z,8.60
2023-03-11T01:04:48.672Z,8.57
2023-03-11T01:05:50.309Z,8.53
2023-03-11T01:06:52.004Z,8.43
2023-03-11T01:07:53.603Z,8.41
2023-03-11T01:08:55.224Z,8.40
2023-03-11T01:09:56.776Z,8.42
2023-03-11T01:10:59.565Z,8.38
2023-03-11T01:12:01.197Z,8.33
2023-03-11T01:13:04.044Z,8.23
2023-03-11T01:14:05.734Z,8.16
2023-03-11T01:15:09.247Z,8.14
2023-03-11T01:16:10.951Z,8.16
2023-03-11T01:17:12.591Z,8.12
2023-03-11T01:18:14.270Z,8.07
2023-03-11T01:19:15.976Z,8.03
2023-03-11T01:20:17.990Z,7.98
2023-03-11T01:21:19.542Z,7.96
2023-03-11T01:22:21.336Z,7.96
2023-03-11T01:23:23.137Z,8.01
2023-03-11T01:24:24.724Z,8.00
2023-03-11T01:25:26.446Z,7.98
2023-03-11T01:26:28.050Z,7.96
2023-03-11T01:27:30.791Z,7.89
2023-03-11T01:28:32.372Z,7.88
2023-03-11T01:29:34.404Z,7.88
2023-03-11T01:30:40.192Z,7.92
2023-03-11T01:31:41.795Z,7.93
2023-03-11T01:32:43.604Z,7.96
2023-03-11T01:33:45.264Z,7.91
2023-03-11T01:34:46.930Z,7.94
2023-03-11T01:35:48.489Z,7.88
2023-03-11T01:36:50.117Z,7.90
2023-03-11T01:37:51.763Z,7.91
2023-03-11T01:38:53.425Z,7.90
2023-03-11T01:39:55.031Z,7.83
2023-03-11T01:40:56.607Z,7.84
2023-03-11T01:41:58.362Z,7.92
2023-03-11T01:43:00.661Z,7.92
2023-03-11T01:44:02.815Z,7.89
2023-03-11T01:45:45.709Z,7.92
2023-03-11T01:46:53.554Z,7.89
2023-03-11T01:48:02.186Z,7.91
2023-03-11T01:49:05.751Z,7.89
2023-03-11T01:50:12.796Z,7.89
2023-03-11T01:51:17.461Z,7.92
2023-03-11T01:52:19.559Z,7.92
2023-03-11T01:53:25.269Z,7.90
2023-03-11T01:54:36.198Z,7.87
2023-03-11T01:55:38.525Z,7.83
2023-03-11T01:56:41.954Z,7.85
2023-03-11T01:57:46.524Z,7.80
2023-03-11T01:58:52.968Z,7.72
2023-03-11T01:59:58.152Z,7.68
2023-03-11T02:01:01.480Z,7.68
2023-03-11T02:02:16.329Z,7.68
2023-03-11T02:03:24.125Z,7.63
2023-03-11T02:04:28.301Z,7.61
2023-03-11T02:05:29.956Z,7.57
2023-03-11T02:06:32.577Z,7.57
2023-03-11T02:07:34.653Z,7.55
2023-03-11T02:08:38.274Z,7.53
2023-03-11T02:09:42.301Z,7.48
2023-03-11T02:10:44.230Z,7.49
2023-03-11T02:11:45.833Z,7.42
2023-03-11T02:12:49.341Z,7.46
2023-03-11T02:14:00.496Z,7.41
2023-03-11T02:15:04.503Z,7.39
2023-03-11T02:16:06.519Z,7.38
2023-03-11T02:17:08.888Z,7.37
2023-03-11T02:18:13.874Z,7.34
2023-03-11T02:19:30.361Z,7.29
2023-03-11T02:21:12.943Z,7.33
2023-03-11T02:22:15.306Z,7.28
2023-03-11T02:23:21.557Z,7.21
2023-03-11T02:24:30.839Z,7.17
2023-03-11T02:25:55.993Z,7.15
2023-03-11T02:27:00.355Z,7.08
2023-03-11T02:28:07.246Z,7.11
2023-03-11T02:29:11.800Z,7.03
2023-03-11T02:30:15.258Z,7.05
2023-03-11T02:31:19.315Z,6.95
2023-03-11T02:32:21.463Z,6.92
2023-03-11T02:33:26.648Z,6.89
2023-03-11T02:34:31.498Z,6.88
2023-03-11T02:35:34.324Z,6.82
2023-03-11T02:36:39.237Z,6.79
2023-03-11T02:37:51.769Z,6.80
2023-03-11T02:38:54.250Z,6.76
2023-03-11T02:40:22.086Z,6.73
2023-03-11T02:41:24.550Z,6.66
2023-03-11T02:42:31.512Z,6.67
2023-03-11T02:43:43.423Z,6.66
2023-03-11T02:44:52.344Z,6.65
2023-03-11T02:45:54.381Z,6.61
2023-03-11T02:46:56.465Z,6.58
2023-03-11T02:47:59.719Z,6.58
2023-03-11T02:49:01.951Z,6.63
2023-03-11T02:50:04.529Z,6.55
2023-03-11T02:51:07.042Z,6.53
2023-03-11T02:52:08.933Z,6.46
2023-03-11T02:53:10.559Z,6.43
2023-03-11T02:54:12.185Z,6.40
2023-03-11T02:55:14.019Z,6.41
2023-03-11T02:56:15.609Z,6.38
2023-03-11T02:57:17.693Z,6.36
2023-03-11T02:58:19.394Z,6.32
2023-03-11T02:59:21.017Z,6.28
2023-03-11T03:00:22.913Z,6.19
2023-03-11T03:01:31.606Z,6.15
2023-03-11T03:02:34.719Z,6.11
2023-03-11T03:03:36.552Z,6.06
2023-03-11T03:04:38.160Z,6.05
2023-03-11T03:05:39.785Z,6.02
2023-03-11T03:06:41.426Z,6.01
2023-03-11T03:07:43.065Z,5.96
2023-03-11T03:08:44.788Z,5.95
2023-03-11T03:09:46.527Z,5.99
2023-03-11T03:10:48.217Z,5.94
2023-03-11T03:11:49.910Z,5.93
2023-03-11T03:12:51.809Z,5.93
2023-03-11T03:13:53.425Z,5.89
2023-03-11T03:14:55.061Z,5.94
2023-03-11T03:15:57.224Z,6.00
2023-03-11T03:16:59.122Z,6.05
2023-03-11T03:18:00.803Z,6.02
2023-03-11T03:19:02.464Z,6.00
2023-03-11T03:20:04.572Z,5.98
2023-03-11T03:21:06.352Z,5.88
2023-03-11T03:22:08.471Z,5.87
2023-03-11T03:23:11.256Z,5.84
2023-03-11T03:24:12.923Z,5.84
2023-03-11T03:25:14.630Z,5.91
2023-03-11T03:26:16.333Z,5.93
2023-03-11T03:27:20.887Z,5.93
2023-03-11T03:28:22.487Z,5.87
2023-03-11T03:29:24.723Z,5.83
2023-03-11T03:30:26.706Z,5.79
2023-03-11T03:31:28.725Z,5.79
2023-03-11T03:32:32.264Z,5.80
2023-03-11T03:33:35.363Z,5.87
2023-03-11T03:34:37.592Z,5.76
2023-03-11T03:35:45.014Z,5.63
2023-03-11T03:36:54.452Z,5.65
2023-03-11T03:37:56.074Z,5.71
2023-03-11T03:38:58.510Z,5.72
2023-03-11T03:40:05.888Z,5.80
2023-03-11T03:41:07.973Z,5.80
2023-03-11T03:42:11.769Z,5.72
2023-03-11T03:43:15.592Z,5.70
2023-03-11T03:44:19.491Z,5.64
2023-03-11T03:45:22.161Z,5.62
2023-03-11T03:46:26.824Z,5.57
2023-03-11T03:47:33.113Z,5.54
2023-03-11T03:48:34.721Z,5.47
2023-03-11T03:49:39.305Z,5.51
2023-03-11T03:50:41.376Z,5.48
2023-03-11T03:51:44.910Z,5.46
2023-03-11T03:52:54.261Z,5.44
2023-03-11T03:53:57.181Z,5.47
2023-03-11T03:55:00.653Z,5.44
2023-03-11T03:56:07.388Z,5.30
2023-03-11T03:57:10.226Z,5.32
2023-03-11T03:58:18.947Z,5.29
2023-03-11T03:59:20.525Z,5.28
2023-03-11T04:00:26.810Z,5.27
2023-03-11T04:01:33.718Z,5.17
2023-03-11T04:02:35.504Z,5.14
2023-03-11T04:03:37.651Z,5.16
2023-03-11T04:04:43.272Z,5.11
2023-03-11T04:05:45.493Z,5.06
2023-03-11T04:06:48.259Z,4.99
2023-03-11T04:07:50.008Z,4.94
2023-03-11T04:08:53.659Z,4.83
2023-03-11T04:09:58.564Z,4.75
2023-03-11T04:11:00.244Z,4.77
2023-03-11T04:12:03.924Z,4.73
2023-03-11T04:13:08.257Z,4.71
2023-03-11T04:14:10.149Z,4.68
2023-03-11T04:15:17.862Z,4.64
2023-03-11T04:16:22.442Z,4.64
2023-03-11T04:17:25.273Z,4.67
2023-03-11T04:18:28.468Z,4.66
2023-03-11T04:19:30.134Z,4.60
2023-03-11T04:20:32.222Z,4.62
2023-03-11T04:21:34.417Z,4.57
2023-03-11T04:22:36.727Z,4.56
2023-03-11T04:23:39.805Z,4.52
2023-03-11T04:24:42.344Z,4.48
2023-03-11T04:25:44.049Z,4.55
2023-03-11T04:26:45.703Z,4.56
2023-03-11T04:27:50.649Z,4.58
2023-03-11T04:28:52.410Z,4.52
2023-03-11T04:29:54.110Z,4.55
2023-03-11T04:30:56.633Z,4.46
2023-03-11T04:31:58.413Z,4.40
2023-03-11T04:33:00.021Z,4.41
2023-03-11T04:34:01.755Z,4.43
2023-03-11T04:35:04.307Z,4.38
2023-03-11T04:36:07.441Z,4.41
2023-03-11T04:37:10.464Z,4.39
2023-03-11T04:38:12.298Z,4.36
2023-03-11T04:39:15.213Z,4.39
2023-03-11T04:40:18.755Z,4.38
2023-03-11T04:41:20.372Z,4.31
2023-03-11T04:42:21.997Z,4.31
2023-03-11T04:43:24.008Z,4.26
2023-03-11T04:44:25.910Z,4.19
2023-03-11T04:45:27.556Z,4.21
2023-03-11T04:46:31.816Z,4.20
2023-03-11T04:47:34.806Z,4.20
2023-03-11T04:48:38.530Z,4.18
2023-03-11T04:49:41.476Z,4.22
2023-03-11T04:50:43.080Z,4.21
2023-03-11T04:51:44.871Z,4.21
2023-03-11T04:52:48.762Z,4.23
2023-03-11T04:53:50.400Z,4.22
2023-03-11T04:54:52.346Z,4.26
2023-03-11T04:55:53.966Z,4.28
2023-03-11T04:56:55.589Z,4.28
2023-03-11T04:57:58.191Z,4.27
2023-03-11T04:59:00.219Z,4.18
2023-03-11T05:00:05.060Z,4.18
2023-03-11T05:01:06.837Z,4.19
2023-03-11T05:02:10.591Z,4.15
2023-03-11T05:03:15.067Z,4.14
2023-03-11T05:04:16.967Z,4.11
2023-03-11T05:05:18.843Z,4.07
2023-03-11T05:06:20.456Z,4.02
2023-03-11T05:07:22.552Z,3.98
2023-03-11T05:08:24.928Z,3.95
2023-03-11T05:09:26.622Z,3.93
2023-03-11T05:10:30.733Z,3.95
2023-03-11T05:11:34.827Z,3.90
2023-03-11T05:12:36.847Z,3.96
2023-03-11T05:13:38.546Z,4.00
2023-03-11T05:14:40.136Z,4.05
2023-03-11T05:15:42.042Z,4.05
2023-03-11T05:16:43.779Z,4.01
2023-03-11T05:17:45.823Z,3.98
2023-03-11T05:18:47.463Z,3.96
2023-03-11T05:19:51.923Z,3.96
2023-03-11T05:20:58.535Z,4.03
2023-03-11T05:22:04.703Z,4.06
2023-03-11T05:23:06.511Z,4.08
2023-03-11T05:24:09.966Z,4.05
2023-03-11T05:25:12.756Z,3.99
2023-03-11T05:26:14.333Z,3.98
2023-03-11T05:27:17.951Z,3.94
2023-03-11T05:28:22.205Z,3.91
2023-03-11T05:29:26.897Z,3.89
2023-03-11T05:30:29.265Z,3.90
2023-03-11T05:31:32.592Z,3.96
2023-03-11T05:32:35.895Z,3.93
2023-03-11T05:33:38.268Z,3.99
2023-03-11T05:34:42.382Z,3.96
2023-03-11T05:35:44.434Z,3.91
2023-03-11T05:36:46.128Z,3.97
2023-03-11T05:37:48.241Z,4.00
2023-03-11T05:38:49.893Z,4.03
2023-03-11T05:39:52.535Z,4.06
2023-03-11T05:40:54.963Z,4.05
2023-03-11T05:41:56.579Z,4.03
2023-03-11T05:42:58.706Z,4.07
2023-03-11T05:44:02.441Z,4.11
2023-03-11T05:45:04.574Z,4.08
2023-03-11T05:46:07.620Z,4.07
2023-03-11T05:47:09.394Z,4.11
2023-03-11T05:48:11.392Z,4.13
2023-03-11T05:49:13.001Z,4.12
2023-03-11T05:50:14.668Z,4.10
2023-03-11T05:51:18.552Z,4.07
2023-03-11T05:52:21.455Z,4.05
2023-03-11T05:53:23.933Z,4.09
2023-03-11T05:54:26.089Z,4.07
2023-03-11T05:55:27.990Z,4.06
2023-03-11T05:56:29.655Z,4.12
2023-03-11T05:57:31.395Z,4.07
2023-03-11T05:58:33.334Z,4.02
2023-03-11T05:59:35.158Z,4.01
2023-03-11T06:00:39.243Z,4.02
2023-03-11T06:01:41.436Z,4.04
2023-03-11T06:02:43.077Z,4.04
2023-03-11T06:03:48.074Z,4.01
2023-03-11T06:04:49.998Z,4.06
2023-03-11T06:05:52.173Z,4.03
2023-03-11T06:06:53.889Z,4.07
2023-03-11T06:07:58.130Z,4.07
2023-03-11T06:08:59.766Z,4.04
2023-03-11T06:10:04.771Z,4.11
2023-03-11T06:11:10.793Z,4.14
2023-03-11T06:12:13.605Z,4.24
2023-03-11T06:13:38.743Z,4.29
2023-03-11T06:14:40.326Z,4.31
2023-03-11T06:15:44.424Z,4.31
2023-03-11T06:16:46.152Z,4.32
2023-03-11T06:17:47.867Z,4.25
2023-03-11T06:18:49.608Z,4.27
2023-03-11T06:19:51.232Z,4.26
2023-03-11T06:20:54.185Z,4.20
2023-03-11T06:21:55.846Z,4.18
2023-03-11T06:22:57.502Z,4.25
2023-03-11T06:24:00.309Z,4.33
2023-03-11T06:25:03.528Z,4.34
2023-03-11T06:26:06.946Z,4.31
2023-03-11T06:27:13.414Z,4.27
2023-03-11T06:28:16.202Z,4.16
2023-03-11T06:29:19.467Z,4.07
2023-03-11T06:30:23.963Z,4.08
2023-03-11T06:31:35.533Z,4.01
2023-03-11T06:32:51.478Z,4.00
2023-03-11T06:33:54.695Z,4.02
2023-03-11T06:34:56.436Z,4.03
2023-03-11T06:35:59.465Z,4.01
2023-03-11T06:37:01.105Z,3.94
2023-03-11T06:38:02.735Z,3.93
2023-03-11T06:39:04.578Z,3.87
2023-03-11T06:40:09.140Z,3.89
2023-03-11T06:41:10.865Z,3.78
2023-03-11T06:42:12.732Z,3.69
2023-03-11T06:43:15.538Z,3.60
2023-03-11T06:45:32.651Z,3.65
2023-03-11T06:46:34.382Z,3.63
2023-03-11T06:47:36.016Z,3.55
2023-03-11T06:48:37.953Z,3.56
2023-03-11T06:49:39.548Z,3.66
2023-03-11T06:50:41.158Z,3.67
2023-03-11T06:51:42.758Z,3.51
2023-03-11T06:52:45.563Z,3.37
2023-03-11T06:53:53.931Z,3.42
2023-03-11T06:54:56.936Z,3.48
2023-03-11T06:56:10.456Z,3.56
2023-03-11T06:57:18.387Z,3.59
2023-03-11T06:58:22.044Z,3.62
2023-03-11T06:59:23.622Z,3.65
2023-03-11T07:00:25.303Z,3.69
2023-03-11T07:01:32.078Z,3.69
2023-03-11T07:02:35.979Z,3.64
2023-03-11T07:03:38.265Z,3.71
2023-03-11T07:04:39.927Z,3.77
2023-03-11T07:05:42.119Z,3.79
2023-03-11T07:06:45.435Z,3.89
2023-03-11T07:07:54.802Z,3.91
2023-03-11T07:08:57.761Z,3.92
2023-03-11T07:09:59.388Z,3.97
2023-03-11T07:11:07.346Z,3.89
2023-03-11T07:12:09.674Z,3.92
2023-03-11T07:13:12.502Z,3.87
2023-03-11T07:14:15.084Z,4.01
2023-03-11T07:15:20.986Z,4.11
2023-03-11T07:16:25.392Z,4.11
2023-03-11T07:17:30.153Z,4.18
2023-03-11T07:18:32.671Z,4.10
2023-03-11T07:19:34.294Z,4.20
2023-03-11T07:20:35.873Z,4.21
2023-03-11T07:21:38.670Z,4.22
2023-03-11T07:22:40.228Z,4.28
2023-03-11T07:23:41.916Z,4.32
2023-03-11T07:24:49.683Z,4.33
2023-03-11T07:25:51.261Z,4.38
2023-03-11T07:26:52.829Z,4.27
2023-03-11T07:27:54.469Z,4.33
2023-03-11T07:28:57.185Z,4.36
2023-03-11T07:30:00.434Z,4.20
2023-03-11T07:31:08.041Z,4.03
2023-03-11T07:32:10.250Z,4.08
2023-03-11T07:33:12.448Z,4.05
2023-03-11T07:34:14.207Z,3.97
2023-03-11T07:35:16.382Z,3.79
2023-03-11T07:36:23.096Z,3.79
2023-03-11T07:37:24.676Z,3.79
2023-03-11T07:38:26.246Z,3.76
2023-03-11T07:39:28.034Z,3.78
2023-03-11T07:40:29.724Z,3.78
2023-03-11T07:41:33.882Z,3.80
2023-03-11T07:42:35.506Z,3.66
2023-03-11T07:43:37.486Z,3.60
2023-03-11T07:44:39.070Z,3.51
2023-03-11T07:45:40.796Z,3.59
2023-03-11T07:46:44.334Z,3.65
2023-03-11T07:47:45.989Z,3.70
2023-03-11T07:48:47.617Z,3.58
2023-03-11T07:49:49.256Z,3.61
2023-03-11T07:50:59.543Z,3.68
2023-03-11T07:52:01.263Z,3.57
2023-03-11T07:53:02.858Z,3.52
2023-03-11T07:54:05.245Z,3.49
2023-03-11T07:55:07.378Z,3.46
2023-03-11T07:56:11.751Z,3.49
2023-03-11T07:57:13.380Z,3.55
2023-03-11T07:58:14.934Z,3.43
2023-03-11T07:59:16.524Z,3.45
2023-03-11T08:00:18.726Z,3.43
2023-03-11T08:01:23.329Z,3.44
2023-03-11T08:02:24.964Z,3.46
2023-03-11T08:03:26.565Z,3.55
2023-03-11T08:04:28.155Z,3.53
2023-03-11T08:05:34.085Z,3.53
2023-03-11T08:06:37.034Z,3.51
2023-03-11T08:07:38.920Z,3.54
2023-03-11T08:08:40.792Z,3.60
2023-03-11T08:09:42.354Z,3.50
2023-03-11T08:10:43.943Z,3.46
2023-03-11T08:11:45.530Z,3.33
2023-03-11T08:12:47.170Z,3.40
2023-03-11T08:13:49.455Z,3.38
2023-03-11T08:14:51.027Z,3.41
2023-03-11T08:15:52.680Z,3.29
2023-03-11T08:16:54.358Z,3.36
2023-03-11T08:17:56.037Z,3.26
2023-03-11T08:18:57.623Z,3.23
2023-03-11T08:19:59.190Z,3.32
2023-03-11T08:21:06.010Z,3.30
2023-03-11T08:22:07.592Z,3.17
2023-03-11T08:23:09.146Z,3.30
2023-03-11T08:24:13.146Z,3.32
2023-03-11T08:25:14.906Z,3.27
2023-03-11T08:26:19.769Z,3.29
2023-03-11T08:27:21.357Z,3.21
2023-03-11T08:28:22.933Z,3.24
2023-03-11T08:29:25.180Z,3.01
2023-03-11T08:30:26.733Z,2.92
2023-03-11T08:31:30.841Z,2.90
2023-03-11T08:32:32.956Z,2.86
2023-03-11T08:33:34.536Z,2.76
2023-03-11T08:34:36.208Z,2.87
2023-03-11T08:35:38.069Z,2.91
2023-03-11T08:36:39.911Z,2.86
2023-03-11T08:37:41.519Z,2.84
2023-03-11T08:38:43.123Z,2.84
2023-03-11T08:39:44.711Z,2.87
2023-03-11T08:40:46.367Z,2.80
2023-03-11T08:41:47.917Z,2.77
2023-03-11T08:42:49.623Z,2.76
2023-03-11T08:43:51.301Z,2.78
2023-03-11T08:44:52.916Z,2.84
2023-03-11T08:45:54.536Z,2.84
2023-03-11T08:46:56.230Z,2.79
2023-03-11T08:47:57.919Z,2.83
2023-03-11T08:49:01.389Z,2.91
2023-03-11T08:50:11.671Z,2.85
2023-03-11T08:51:14.102Z,2.77
2023-03-11T08:52:15.736Z,2.62
2023-03-11T08:53:17.560Z,2.69
2023-03-11T08:54:19.114Z,2.68
2023-03-11T08:55:20.698Z,2.66
2023-03-11T08:56:22.302Z,2.64
2023-03-11T08:57:24.001Z,2.53
2023-03-11T08:58:25.982Z,2.40
2023-03-11T08:59:27.692Z,2.41
2023-03-11T09:00:29.357Z,2.47
2023-03-11T09:01:31.032Z,2.43
2023-03-11T09:02:32.944Z,2.39
2023-03-11T09:03:35.356Z,2.37
2023-03-11T09:04:36.976Z,2.30
2023-03-11T09:05:39.923Z,2.29
2023-03-11T09:06:43.330Z,2.25
2023-03-11T09:07:44.992Z,2.26
2023-03-11T09:08:47.914Z,2.25
2023-03-11T09:09:49.482Z,2.29
2023-03-11T09:10:51.072Z,2.27
2023-03-11T09:11:52.666Z,2.24
2023-03-11T09:12:54.219Z,2.20
2023-03-11T09:13:55.764Z,2.16
2023-03-11T09:14:57.356Z,2.04
2023-03-11T09:15:59.253Z,2.05
2023-03-11T09:17:01.006Z,2.00
2023-03-11T09:18:02.560Z,1.94
2023-03-11T09:19:04.209Z,1.88
2023-03-11T09:20:06.468Z,1.90
2023-03-11T09:21:08.448Z,1.96
2023-03-11T09:22:09.988Z,1.93
2023-03-11T09:23:14.056Z,1.94
2023-03-11T09:24:15.642Z,2.01
2023-03-11T09:25:17.239Z,2.04
2023-03-11T09:26:18.876Z,2.05
2023-03-11T09:27:20.446Z,2.08
2023-03-11T09:28:22.024Z,2.07
2023-03-11T09:29:23.646Z,2.18
2023-03-11T09:30:25.313Z,2.18
2023-03-11T09:31:27.043Z,2.16
2023-03-11T09:32:28.761Z,2.15
2023-03-11T09:33:30.401Z,2.08
2023-03-11T09:34:32.062Z,1.97
2023-03-11T09:35:33.870Z,1.94
2023-03-11T09:36:35.554Z,2.02
2023-03-11T09:37:37.092Z,2.06
2023-03-11T09:38:38.668Z,2.02
2023-03-11T09:39:40.271Z,2.00
2023-03-11T09:40:59.655Z,1.95
2023-03-11T09:42:42.973Z,2.06
2023-03-11T09:44:00.145Z,2.03
2023-03-11T09:45:11.208Z,2.02
2023-03-11T09:46:34.288Z,1.93
2023-03-11T09:47:45.633Z,1.91
2023-03-11T09:49:13.139Z,2.04
2023-03-11T09:50:24.903Z,2.07
2023-03-11T09:51:28.674Z,2.03
2023-03-11T09:52:44.143Z,1.99
2023-03-11T09:53:49.528Z,1.89
2023-03-11T09:54:53.574Z,1.76
2023-03-11T09:56:05.045Z,1.77
2023-03-11T09:57:12.829Z,1.85
2023-03-11T09:58:44.975Z,1.70
2023-03-11T09:59:47.638Z,1.79
2023-03-11T10:00:50.383Z,1.67
2023-03-11T10:01:52.258Z,1.72
2023-03-11T10:02:54.708Z,1.72
2023-03-11T10:04:02.094Z,1.80
2023-03-11T10:05:12.520Z,1.74
2023-03-11T10:06:26.368Z,1.76
2023-03-11T10:07:39.536Z,1.76
2023-03-11T10:08:49.074Z,1.75
2023-03-11T10:09:55.745Z,1.76
2023-03-11T10:11:13.776Z,1.80
2023-03-11T10:12:56.115Z,1.90
2023-03-11T10:14:05.880Z,1.81
2023-03-11T10:15:24.284Z,1.72
2023-03-11T10:16:51.569Z,1.74
2023-03-11T10:17:59.319Z,1.71
2023-03-11T10:19:21.728Z,1.77
2023-03-11T10:20:35.981Z,1.87
2023-03-11T10:21:44.126Z,1.85
2023-03-11T10:22:51.121Z,1.81
2023-03-11T10:24:13.827Z,1.82
2023-03-11T10:25:32.570Z,1.89
2023-03-11T10:26:37.512Z,1.93
2023-03-11T10:28:01.629Z,1.87
2023-03-11T10:29:29.830Z,1.86
2023-03-11T10:30:38.700Z,1.79
2023-03-11T10:32:15.238Z,1.74
2023-03-11T10:33:25.550Z,1.67
2023-03-11T10:34:34.222Z,1.71
2023-03-11T10:35:41.803Z,1.75
2023-03-11T10:36:51.475Z,1.86
2023-03-11T10:38:28.297Z,1.74
2023-03-11T10:39:32.125Z,1.87
2023-03-11T10:40:36.755Z,1.86
2023-03-11T10:41:47.426Z,1.88
2023-03-11T10:42:50.855Z,1.90
2023-03-11T10:44:03.367Z,1.82
2023-03-11T10:45:12.422Z,1.88
2023-03-11T10:46:24.600Z,1.89
2023-03-11T10:47:26.187Z,1.87
2023-03-11T10:48:27.765Z,1.88
2023-03-11T10:49:29.889Z,1.76
2023-03-11T10:50:36.548Z,1.90
2023-03-11T10:51:38.726Z,1.90
2023-03-11T10:53:06.503Z,1.82
2023-03-11T10:54:08.151Z,1.79
2023-03-11T10:55:16.555Z,1.78
2023-03-11T10:56:36.109Z,1.76
2023-03-11T10:57:38.013Z,1.72
2023-03-11T10:58:49.153Z,1.80
2023-03-11T10:59:56.188Z,1.73
2023-03-11T11:01:18.517Z,1.72
2023-03-11T11:02:28.062Z,1.77
2023-03-11T11:03:29.953Z,1.80
2023-03-11T11:04:41.101Z,1.91
2023-03-11T11:05:42.682Z,1.91
2023-03-11T11:06:44.339Z,1.92
2023-03-11T11:07:48.612Z,1.91
2023-03-11T11:09:04.351Z,1.99
2023-03-11T11:10:23.820Z,2.04
2023-03-11T11:11:25.354Z,2.00
2023-03-11T11:12:26.903Z,1.95
2023-03-11T11:13:31.025Z,1.87
2023-03-11T11:14:48.692Z,1.82
2023-03-11T11:16:00.912Z,1.86
2023-03-11T11:17:02.554Z,1.86
2023-03-11T11:18:18.137Z,1.80
2023-03-11T11:19:19.929Z,1.74
2023-03-11T11:20:23.023Z,1.77
2023-03-11T11:21:34.190Z,1.81
2023-03-11T11:22:35.808Z,1.78
2023-03-11T11:23:44.992Z,1.78
2023-03-11T11:24:48.736Z,1.76
2023-03-11T11:25:58.808Z,1.71
2023-03-11T11:27:04.468Z,1.65
2023-03-11T11:28:18.264Z,1.61
2023-03-11T11:29:20.469Z,1.70
2023-03-11T11:30:22.486Z,1.64
2023-03-11T11:31:25.846Z,1.67
2023-03-11T11:32:27.658Z,1.59
2023-03-11T11:33:38.646Z,1.59
2023-03-11T11:34:41.058Z,1.50
2023-03-11T11:35:51.423Z,1.62
2023-03-11T11:36:53.213Z,1.69
2023-03-11T11:38:01.475Z,1.70
2023-03-11T11:39:15.803Z,1.70
2023-03-11T11:40:30.430Z,1.69
2023-03-11T11:41:35.978Z,1.68
2023-03-11T11:42:41.071Z,1.62
2023-03-11T11:43:59.985Z,1.67
2023-03-11T11:45:13.339Z,1.64
2023-03-11T11:46:30.396Z,1.62
2023-03-11T11:47:39.409Z,1.69
2023-03-11T11:48:47.400Z,1.72
2023-03-11T11:49:57.806Z,1.68
2023-03-11T11:51:03.084Z,1.67
2023-03-11T11:52:12.329Z,1.72
2023-03-11T11:53:58.861Z,1.72
2023-03-11T11:55:00.429Z,1.78
2023-03-11T11:56:02.692Z,1.79
2023-03-11T11:57:15.805Z,1.76
2023-03-11T11:58:17.545Z,1.67
2023-03-11T11:59:22.239Z,1.68
2023-03-11T12:00:32.481Z,1.68
2023-03-11T12:01:50.205Z,1.68
2023-03-11T12:03:19.349Z,1.71
2023-03-11T12:05:05.341Z,1.65
2023-03-11T12:06:43.400Z,1.51
2023-03-11T12:07:58.237Z,1.44
2023-03-11T12:09:21.481Z,1.36
2023-03-11T12:10:33.976Z,1.36
2023-03-11T12:11:41.475Z,1.31
2023-03-11T12:12:46.387Z,1.38
2023-03-11T12:14:10.384Z,1.38
2023-03-11T12:15:26.876Z,1.32
2023-03-11T12:17:01.890Z,1.39
2023-03-11T12:18:15.124Z,1.42
2023-03-11T12:19:22.890Z,1.43
2023-03-11T12:20:55.647Z,1.48
2023-03-11T12:22:00.044Z,1.59
2023-03-11T12:23:11.533Z,1.60
2023-03-11T12:24:19.153Z,1.62
2023-03-11T12:25:30.029Z,1.69
2023-03-11T12:26:37.961Z,1.67
2023-03-11T12:27:47.849Z,1.65
2023-03-11T12:29:03.710Z,1.60
2023-03-11T12:30:18.803Z,1.64
2023-03-11T12:31:22.767Z,1.75
2023-03-11T12:32:34.315Z,1.75
2023-03-11T12:33:42.187Z,1.73
2023-03-11T12:34:43.953Z,1.72
2023-03-11T12:35:57.762Z,1.63
2023-03-11T12:37:01.457Z,1.67
2023-03-11T12:38:24.357Z,1.66
2023-03-11T12:39:31.722Z,1.64
2023-03-11T12:41:09.385Z,1.64
2023-03-11T12:42:10.949Z,1.52
2023-03-11T12:43:30.942Z,1.50
2023-03-11T12:44:33.112Z,1.49
2023-03-11T12:45:49.450Z,1.41
2023-03-11T12:46:53.891Z,1.49
2023-03-11T12:48:29.113Z,1.53
2023-03-11T12:49:32.970Z,1.65
2023-03-11T12:50:41.939Z,1.63
2023-03-11T12:52:01.998Z,1.68
2023-03-11T12:53:03.595Z,1.62
2023-03-11T12:54:37.009Z,1.64
2023-03-11T12:55:39.904Z,1.59
2023-03-11T12:56:45.484Z,1.63
2023-03-11T12:57:46.981Z,1.50
2023-03-11T12:59:27.460Z,1.52
2023-03-11T13:00:50.528Z,1.58
2023-03-11T13:01:52.145Z,1.68
2023-03-11T13:03:31.596Z,1.73
2023-03-11T13:04:46.692Z,1.78
2023-03-11T13:06:25.178Z,1.74
2023-03-11T13:07:46.426Z,1.75
2023-03-11T13:08:55.307Z,1.81
2023-03-11T13:10:17.552Z,1.92
2023-03-11T13:11:34.297Z,1.85
2023-03-11T13:12:43.539Z,1.79
2023-03-11T13:13:45.180Z,1.79
2023-03-11T13:14:46.765Z,1.73
2023-03-11T13:15:48.464Z,1.85
2023-03-11T13:16:50.445Z,1.91
2023-03-11T13:18:02.276Z,1.90
2023-03-11T13:19:31.642Z,2.00
2023-03-11T13:20:39.122Z,2.04
2023-03-11T13:21:40.731Z,2.08
2023-03-11T13:22:57.413Z,2.14
2023-03-11T13:24:20.525Z,2.10
2023-03-11T13:25:33.354Z,2.18
2023-03-11T13:26:54.242Z,2.17
2023-03-11T13:28:11.136Z,2.14
2023-03-11T13:29:44.609Z,2.00
2023-03-11T13:31:31.034Z,2.07
2023-03-11T13:33:02.436Z,2.14
2023-03-11T13:34:06.809Z,2.23
2023-03-11T13:35:26.995Z,2.33
2023-03-11T13:37:02.312Z,2.25
2023-03-11T13:38:35.141Z,2.37
2023-03-11T13:39:54.462Z,2.33
2023-03-11T13:40:56.131Z,2.31
2023-03-11T13:41:57.898Z,2.32
2023-03-11T13:43:21.355Z,2.42
2023-03-11T13:44:33.429Z,2.46
2023-03-11T13:45:37.525Z,2.56
2023-03-11T13:46:42.629Z,2.60
2023-03-11T13:47:48.068Z,2.53
2023-03-11T13:48:55.349Z,2.43
2023-03-11T13:50:02.312Z,2.43
2023-03-11T13:51:13.218Z,2.43
2023-03-11T13:52:23.704Z,2.38
2023-03-11T13:53:51.769Z,2.23
2023-03-11T13:55:02.630Z,2.23
2023-03-11T13:56:04.616Z,2.21
2023-03-11T13:57:21.259Z,2.25
2023-03-11T13:58:27.097Z,2.10
2023-03-11T13:59:31.388Z,2.03
2023-03-11T14:00:33.355Z,2.03
2023-03-11T14:01:34.940Z,1.94
2023-03-11T14:02:36.773Z,1.94
2023-03-11T14:03:42.696Z,1.95
2023-03-11T14:04:50.538Z,1.91
2023-03-11T14:06:01.943Z,1.83
2023-03-11T14:07:22.745Z,1.85
2023-03-11T14:08:30.487Z,1.78
2023-03-11T14:09:34.150Z,1.74
2023-03-11T14:10:36.004Z,1.78
2023-03-11T14:11:37.613Z,1.75
2023-03-11T14:12:39.499Z,1.77
2023-03-11T14:13:42.703Z,1.75
2023-03-11T14:14:57.787Z,1.83
2023-03-11T14:16:18.092Z,1.81
2023-03-11T14:17:21.009Z,1.71
2023-03-11T14:18:35.605Z,1.63
2023-03-11T14:19:37.203Z,1.64
2023-03-11T14:20:41.265Z,1.63
2023-03-11T14:21:50.920Z,1.75
2023-03-11T14:22:54.947Z,1.79
2023-03-11T14:23:56.859Z,1.73
2023-03-11T14:25:07.193Z,1.75
2023-03-11T14:26:17.447Z,1.62
2023-03-11T14:27:19.025Z,1.47
2023-03-11T14:28:21.456Z,1.35
2023-03-11T14:29:33.849Z,1.34
2023-03-11T14:30:35.416Z,1.35
2023-03-11T14:31:42.527Z,1.33
2023-03-11T14:32:59.996Z,1.17
2023-03-11T14:34:03.291Z,1.16
2023-03-11T14:35:20.048Z,1.14
2023-03-11T14:36:21.618Z,1.25
2023-03-11T14:37:35.353Z,1.22
2023-03-11T14:38:43.274Z,1.23